Time;durP1;ratioP1;P1;durP2;ratioP2;P2;SDS_P1;SDS_P2;PMS_P1;PMS_P2;Temp;Humidity;BMP_temperature;BMP_pressure;BME280_temperature;BME280_humidity;BME280_pressure;Samples;Min_cycle;Max_cycle;Signal;HPM_P1;HPM_P2
2022/06/28 00:00:24;;;;;;;7.20;4.47;;;24.80;80.00;;;;;;5022285;28;20262;-69
2022/06/28 00:02:50;;;;;;;7.72;6.93;;;24.80;80.00;;;;;;5012426;28;20226;-68
2022/06/28 00:05:17;;;;;;;6.25;4.82;;;24.70;80.00;;;;;;5010076;28;20222;-71
2022/06/28 00:07:44;;;;;;;6.15;4.45;;;24.70;80.10;;;;;;5019566;28;20714;-68
2022/06/28 00:10:13;;;;;;;7.28;5.43;;;24.70;80.40;;;;;;5024253;28;20217;-68
2022/06/28 00:12:40;;;;;;;6.32;4.53;;;24.60;80.50;;;;;;5020169;28;20208;-69
2022/06/28 00:17:56;;;;;;;5.38;4.75;;;24.60;81.00;;;;;;5010819;28;20250;-72
2022/06/28 00:20:23;;;;;;;7.05;5.20;;;24.60;81.20;;;;;;5020384;28;20227;-69
2022/06/28 00:22:51;;;;;;;5.05;4.50;;;24.50;81.20;;;;;;5009995;28;20583;-70
2022/06/28 00:25:17;;;;;;;7.72;5.18;;;24.50;81.40;;;;;;5013542;28;20222;-68
2022/06/28 00:27:44;;;;;;;4.72;4.32;;;24.40;81.50;;;;;;5024977;28;20206;-69
2022/06/28 00:30:14;;;;;;;7.00;5.50;;;24.40;81.70;;;;;;5012058;28;20238;-68
2022/06/28 00:32:41;;;;;;;6.90;4.20;;;24.40;82.00;;;;;;5030675;28;20666;-68
2022/06/28 00:35:09;;;;;;;5.38;4.35;;;24.30;82.10;;;;;;5019303;28;20203;-69
2022/06/28 00:37:35;;;;;;;5.00;4.60;;;24.30;82.20;;;;;;5015300;28;20207;-69
2022/06/28 00:40:02;;;;;;;9.45;5.32;;;24.30;82.40;;;;;;5016863;28;20207;-68
2022/06/28 00:42:29;;;;;;;5.80;5.10;;;24.30;82.70;;;;;;5018348;28;20204;-69
2022/06/28 00:44:57;;;;;;;5.82;5.22;;;24.20;82.90;;;;;;5026520;28;20199;-69
2022/06/28 00:47:27;;;;;;;7.85;6.72;;;24.10;83.10;;;;;;5024858;28;20551;-68
2022/06/28 00:49:57;;;;;;;8.55;7.07;;;24.10;83.30;;;;;;5027193;28;20211;-69
2022/06/28 00:52:24;;;;;;;6.00;5.35;;;24.00;83.40;;;;;;5012684;28;20237;-69
2022/06/28 00:54:51;;;;;;;10.40;6.13;;;24.00;83.70;;;;;;5022573;28;20207;-69
2022/06/28 00:57:18;;;;;;;9.52;5.15;;;24.00;84.00;;;;;;5027816;28;20210;-68
2022/06/28 00:59:45;;;;;;;9.57;7.07;;;24.00;84.30;;;;;;5028104;28;20662;-70
2022/06/28 01:02:12;;;;;;;6.45;5.30;;;23.90;84.30;;;;;;5014165;28;20291;-69
2022/06/28 01:04:41;;;;;;;9.27;6.90;;;23.90;84.50;;;;;;5017926;28;20211;-69
2022/06/28 01:07:08;;;;;;;9.80;7.22;;;23.80;84.70;;;;;;5026448;28;20218;-69
2022/06/28 01:09:35;;;;;;;11.32;7.13;;;23.90;85.00;;;;;;5027477;28;20207;-69
2022/06/28 01:12:02;;;;;;;4.88;4.40;;;23.90;85.20;;;;;;5027285;28;20214;-70
2022/06/28 01:14:29;;;;;;;5.13;4.28;;;23.80;85.30;;;;;;5016195;28;20207;-69
2022/06/28 01:16:55;;;;;;;4.57;4.18;;;23.80;85.50;;;;;;5018068;28;20234;-70
2022/06/28 01:19:22;;;;;;;8.73;5.22;;;23.70;85.60;;;;;;5017183;28;20544;-70
2022/06/28 01:21:51;;;;;;;6.95;5.65;;;23.70;85.80;;;;;;5012050;28;20227;-69
2022/06/28 01:24:20;;;;;;;5.65;4.47;;;23.70;85.90;;;;;;5013835;28;20218;-69
2022/06/28 01:26:46;;;;;;;13.77;6.88;;;23.70;86.90;;;;;;5012296;28;20203;-69
2022/06/28 01:29:14;;;;;;;5.60;4.90;;;23.70;86.30;;;;;;5018033;28;20602;-69
2022/06/28 01:31:41;;;;;;;7.43;5.53;;;23.70;86.40;;;;;;5010957;28;20207;-69
2022/06/28 01:34:09;;;;;;;6.97;5.85;;;23.60;86.60;;;;;;5025564;28;20218;-69
2022/06/28 01:36:36;;;;;;;5.57;4.38;;;23.60;86.70;;;;;;5014459;28;20265;-68
2022/06/28 01:39:04;;;;;;;6.75;5.25;;;23.60;86.90;;;;;;5017900;28;20207;-69
2022/06/28 01:41:36;;;;;;;7.97;4.85;;;23.50;87.10;;;;;;5017146;28;20229;-69
2022/06/28 01:44:05;;;;;;;4.93;4.45;;;23.50;87.40;;;;;;5020016;28;20210;-68
2022/06/28 01:46:33;;;;;;;6.40;5.72;;;23.50;87.60;;;;;;5027660;28;20434;-69
2022/06/28 01:49:00;;;;;;;7.50;6.25;;;23.40;87.60;;;;;;5031667;28;20703;-69
2022/06/28 01:51:27;;;;;;;9.32;6.10;;;23.50;87.80;;;;;;5017598;28;20207;-69
2022/06/28 01:53:53;;;;;;;5.60;5.10;;;23.50;88.00;;;;;;5019367;28;20215;-69
2022/06/28 01:56:20;;;;;;;9.25;7.10;;;23.40;88.00;;;;;;5022503;28;20211;-69
2022/06/28 01:58:49;;;;;;;10.15;5.97;;;23.40;88.20;;;;;;5021228;28;20199;-69
2022/06/28 02:01:16;;;;;;;7.97;5.55;;;23.40;88.30;;;;;;5012576;28;20227;-68
2022/06/28 02:03:43;;;;;;;8.35;5.90;;;23.40;88.30;;;;;;5014288;28;20218;-69
2022/06/28 02:06:10;;;;;;;5.80;5.20;;;23.40;88.60;;;;;;5011686;28;20602;-69
2022/06/28 02:08:37;;;;;;;5.13;4.63;;;23.30;88.60;;;;;;5014534;28;20218;-69
2022/06/28 02:11:06;;;;;;;9.35;5.60;;;23.40;88.90;;;;;;5012295;28;20203;-68
2022/06/28 02:13:33;;;;;;;7.05;5.28;;;23.40;88.90;;;;;;5024520;28;20230;-70
2022/06/28 02:16:03;;;;;;;5.22;4.72;;;23.30;89.30;;;;;;5011124;28;20298;-70
2022/06/28 02:18:32;;;;;;;10.38;7.53;;;23.30;89.50;;;;;;5010936;28;20227;-69
2022/06/28 02:20:59;;;;;;;7.00;5.78;;;23.20;89.60;;;;;;5011136;28;20231;-70
2022/06/28 02:23:26;;;;;;;6.95;5.60;;;23.20;89.90;;;;;;5021703;28;20776;-70
2022/06/28 02:25:52;;;;;;;7.07;5.57;;;23.20;90.00;;;;;;5012173;28;20659;-69
2022/06/28 02:28:19;;;;;;;6.00;4.95;;;23.20;90.10;;;;;;5018548;28;20212;-70
2022/06/28 02:30:46;;;;;;;6.13;5.10;;;23.10;90.10;;;;;;5013329;28;20203;-70
2022/06/28 02:33:14;;;;;;;6.60;5.03;;;23.10;90.30;;;;;;5010521;28;20217;-71
2022/06/28 02:41:09;;;;;;;9.40;5.75;;;23.00;90.60;;;;;;5012921;28;20268;-71
2022/06/28 02:43:36;;;;;;;7.00;5.85;;;23.00;90.70;;;;;;5021245;28;20215;-69
2022/06/28 02:46:03;;;;;;;7.80;5.43;;;22.90;90.80;;;;;;5022068;28;20214;-68
2022/06/28 02:48:31;;;;;;;7.13;6.03;;;22.90;90.90;;;;;;5018540;28;20210;-68
2022/06/28 02:50:58;;;;;;;6.90;5.13;;;22.90;91.00;;;;;;5019301;28;20231;-69
2022/06/28 02:53:24;;;;;;;6.38;5.40;;;22.80;91.00;;;;;;5014227;28;20215;-69
2022/06/28 02:55:51;;;;;;;9.40;5.20;;;22.80;91.10;;;;;;5010487;28;20211;-68
2022/06/28 02:58:18;;;;;;;6.05;4.60;;;22.80;91.20;;;;;;5012427;28;20218;-68
2022/06/28 03:00:45;;;;;;;7.22;6.03;;;22.80;91.30;;;;;;5011069;28;20302;-69
2022/06/28 03:03:13;;;;;;;7.45;5.30;;;22.70;91.30;;;;;;5012796;28;20214;-68
2022/06/28 03:05:42;;;;;;;14.65;10.50;;;22.80;91.50;;;;;;5011980;28;20235;-68
2022/06/28 03:08:09;;;;;;;8.35;6.15;;;22.80;91.50;;;;;;5020158;28;20212;-69
2022/06/28 03:10:35;;;;;;;6.82;5.15;;;22.80;91.50;;;;;;5028233;28;20671;-68
2022/06/28 03:13:02;;;;;;;5.15;4.65;;;22.80;91.50;;;;;;5017568;28;20214;-69
2022/06/28 03:15:29;;;;;;;6.75;5.15;;;22.90;91.50;;;;;;5027131;28;20213;-68
2022/06/28 03:17:56;;;;;;;5.45;4.95;;;22.90;91.50;;;;;;5025621;28;20242;-68
2022/06/28 03:20:23;;;;;;;7.00;4.65;;;22.90;91.50;;;;;;5023792;28;20207;-68
2022/06/28 03:22:51;;;;;;;10.15;5.47;;;22.90;91.50;;;;;;5029077;28;21000;-68
2022/06/28 03:25:18;;;;;;;6.57;5.88;;;22.90;91.50;;;;;;5017239;28;20211;-68
2022/06/28 03:27:45;;;;;;;7.40;6.38;;;23.00;91.60;;;;;;5019792;28;20216;-70
2022/06/28 03:30:12;;;;;;;7.82;5.40;;;23.00;91.60;;;;;;5012488;28;20565;-69
2022/06/28 03:32:38;;;;;;;6.80;5.60;;;23.10;91.60;;;;;;5026640;28;20206;-69
2022/06/28 03:35:06;;;;;;;5.95;5.45;;;23.20;91.50;;;;;;5030136;28;20213;-69
2022/06/28 03:37:33;;;;;;;9.70;6.10;;;23.20;91.40;;;;;;5017552;28;20234;-69
2022/06/28 03:40:01;;;;;;;10.13;7.90;;;23.20;91.80;;;;;;5010228;28;20213;-69
2022/06/28 03:42:28;;;;;;;6.75;5.50;;;23.20;91.40;;;;;;5016345;28;20738;-70
2022/06/28 03:44:55;;;;;;;5.70;4.95;;;23.30;91.40;;;;;;5022683;28;20211;-69
2022/06/28 03:47:21;;;;;;;7.07;5.85;;;23.30;91.30;;;;;;5026144;28;20207;-68
2022/06/28 03:49:48;;;;;;;6.57;5.90;;;23.30;91.30;;;;;;5014798;28;20198;-69
2022/06/28 03:52:15;;;;;;;6.90;6.10;;;23.40;91.30;;;;;;5019967;28;20219;-69
2022/06/28 03:54:42;;;;;;;7.07;5.55;;;23.50;91.30;;;;;;5016435;28;20203;-69
2022/06/28 03:57:10;;;;;;;9.15;6.07;;;23.40;91.20;;;;;;5018285;28;20602;-69
2022/06/28 03:59:37;;;;;;;7.30;5.57;;;23.40;91.20;;;;;;5023286;28;20222;-69
2022/06/28 04:02:04;;;;;;;8.40;6.45;;;23.50;91.30;;;;;;5017030;28;20262;-70
2022/06/28 04:04:32;;;;;;;12.35;8.48;;;23.50;91.30;;;;;;5017640;28;20573;-70
2022/06/28 04:06:59;;;;;;;7.63;5.90;;;23.60;91.30;;;;;;5026791;28;20230;-71
2022/06/28 04:09:26;;;;;;;6.30;5.32;;;23.50;91.30;;;;;;5022260;28;20206;-70
2022/06/28 04:11:53;;;;;;;9.07;6.70;;;23.60;91.30;;;;;;5028519;28;20570;-70
2022/06/28 04:14:21;;;;;;;9.27;5.95;;;23.50;91.20;;;;;;5014153;28;20684;-71
2022/06/28 04:16:48;;;;;;;10.23;7.68;;;23.60;91.20;;;;;;5019143;28;20457;-70
2022/06/28 04:19:15;;;;;;;8.82;6.35;;;23.60;91.60;;;;;;5021578;28;20693;-72
2022/06/28 04:21:42;;;;;;;6.88;6.00;;;23.60;91.20;;;;;;5027741;28;20227;-76
2022/06/28 04:24:09;;;;;;;8.10;5.65;;;23.60;91.20;;;;;;5014662;28;20602;-72
2022/06/28 04:26:36;;;;;;;7.40;5.88;;;23.60;91.20;;;;;;5024701;28;20210;-71
2022/06/28 04:29:03;;;;;;;10.32;6.40;;;23.70;91.20;;;;;;5025111;28;20230;-71
2022/06/28 04:31:31;;;;;;;8.50;6.10;;;23.70;91.20;;;;;;5027842;28;20580;-70
2022/06/28 04:33:58;;;;;;;9.15;6.28;;;23.70;91.20;;;;;;5024622;28;20207;-70
2022/06/28 04:36:26;;;;;;;11.55;8.15;;;23.80;91.20;;;;;;5025333;28;20222;-70
2022/06/28 04:38:53;;;;;;;5.35;4.82;;;23.80;91.20;;;;;;5019892;28;20230;-71
2022/06/28 04:41:23;;;;;;;10.27;5.50;;;23.90;91.10;;;;;;5018763;28;20199;-70
2022/06/28 04:43:51;;;;;;;6.82;5.10;;;23.90;91.00;;;;;;5021437;28;20290;-69
2022/06/28 04:46:17;;;;;;;8.85;5.43;;;23.90;90.90;;;;;;5026135;28;20206;-70
2022/06/28 04:48:46;;;;;;;5.72;4.93;;;24.00;91.00;;;;;;5024455;28;20204;-70
2022/06/28 04:51:12;;;;;;;6.95;5.28;;;24.00;90.90;;;;;;5014491;28;20215;-69
2022/06/28 04:53:40;;;;;;;10.52;6.35;;;24.10;91.00;;;;;;5016341;28;20674;-69
2022/06/28 04:56:07;;;;;;;14.25;8.40;;;24.20;90.90;;;;;;5012187;28;20647;-69
2022/06/28 04:58:34;;;;;;;16.75;8.00;;;24.20;90.80;;;;;;5011002;28;20213;-68
2022/06/28 05:01:01;;;;;;;7.20;5.05;;;24.30;90.70;;;;;;5012310;28;20218;-71
2022/06/28 05:03:27;;;;;;;9.95;5.85;;;24.30;90.70;;;;;;5014102;28;20223;-69
2022/06/28 05:05:56;;;;;;;10.48;4.68;;;24.40;90.50;;;;;;5011767;28;20207;-68
2022/06/28 05:08:23;;;;;;;6.82;4.93;;;24.50;90.40;;;;;;5011780;28;20214;-69
2022/06/28 05:10:50;;;;;;;7.80;5.00;;;24.50;90.40;;;;;;5012138;28;20657;-69
2022/06/28 05:13:18;;;;;;;6.25;4.82;;;24.60;90.40;;;;;;5012077;28;20571;-70
2022/06/28 05:15:44;;;;;;;7.97;4.53;;;24.70;90.10;;;;;;5011023;28;20214;-70
2022/06/28 05:18:11;;;;;;;7.55;4.53;;;24.70;90.10;;;;;;5016185;28;20238;-69
2022/06/28 05:20:38;;;;;;;6.43;4.97;;;24.80;90.00;;;;;;5012037;28;20216;-69
2022/06/28 05:23:06;;;;;;;7.15;4.70;;;24.90;90.00;;;;;;5014763;28;20230;-69
2022/06/28 05:25:33;;;;;;;10.48;4.97;;;24.90;89.90;;;;;;5013977;28;20211;-71
2022/06/28 05:28:00;;;;;;;5.53;4.95;;;24.90;89.90;;;;;;5024079;28;20208;-70
2022/06/28 05:30:27;;;;;;;6.53;4.63;;;25.00;89.90;;;;;;5011860;28;20300;-69
2022/06/28 05:32:54;;;;;;;5.70;4.40;;;25.00;89.90;;;;;;5011691;28;20208;-69
2022/06/28 05:35:21;;;;;;;7.78;4.80;;;25.10;89.70;;;;;;5011697;28;20219;-69
2022/06/28 05:37:47;;;;;;;6.45;4.78;;;25.20;89.70;;;;;;5012840;28;20217;-69
2022/06/28 05:40:15;;;;;;;9.02;4.80;;;25.20;89.40;;;;;;5016101;28;20686;-69
2022/06/28 05:42:42;;;;;;;5.97;5.05;;;25.30;89.50;;;;;;5022411;28;20227;-69
2022/06/28 05:45:10;;;;;;;7.07;4.82;;;25.40;89.50;;;;;;5025274;28;20679;-68
2022/06/28 05:47:36;;;;;;;5.70;4.72;;;25.50;89.00;;;;;;5013883;28;20657;-69
2022/06/28 05:50:04;;;;;;;7.82;4.78;;;25.60;88.70;;;;;;5024601;28;20214;-70
2022/06/28 05:52:31;;;;;;;6.00;4.70;;;25.60;88.50;;;;;;5013078;28;20218;-71
2022/06/28 05:54:58;;;;;;;6.43;4.70;;;25.70;88.40;;;;;;5016761;28;20672;-70
2022/06/28 05:57:26;;;;;;;6.72;5.38;;;25.70;88.30;;;;;;5024331;28;20291;-69
2022/06/28 05:59:52;;;;;;;8.88;4.72;;;25.70;88.30;;;;;;5010711;28;20214;-69
2022/06/28 06:02:19;;;;;;;7.00;4.70;;;25.70;88.40;;;;;;5010770;28;20249;-69
2022/06/28 06:04:46;;;;;;;5.82;4.85;;;25.80;88.30;;;;;;5018027;28;20215;-69
2022/06/28 06:07:13;;;;;;;5.43;4.93;;;25.80;88.20;;;;;;5010985;28;20519;-69
2022/06/28 06:09:42;;;;;;;7.63;4.95;;;25.90;88.00;;;;;;5010549;28;20247;-70
2022/06/28 06:12:09;;;;;;;11.02;5.25;;;25.90;87.90;;;;;;5013506;28;20207;-69
2022/06/28 06:14:37;;;;;;;11.93;5.75;;;26.00;88.10;;;;;;5010686;28;20225;-69
2022/06/28 06:17:04;;;;;;;9.30;4.53;;;26.00;88.20;;;;;;5017713;28;20586;-69
2022/06/28 06:19:31;;;;;;;12.07;4.97;;;26.10;88.10;;;;;;5019546;28;20214;-68
2022/06/28 06:21:58;;;;;;;4.95;4.45;;;26.10;88.10;;;;;;5017633;28;20227;-68
2022/06/28 06:24:24;;;;;;;5.35;4.68;;;26.10;87.60;;;;;;5018915;28;20215;-69
2022/06/28 06:26:51;;;;;;;7.50;4.75;;;26.20;87.40;;;;;;5014601;28;20214;-69
2022/06/28 06:29:18;;;;;;;5.40;4.68;;;26.20;87.30;;;;;;5015392;28;20241;-69
2022/06/28 06:31:46;;;;;;;7.07;5.05;;;26.30;87.50;;;;;;5024420;28;20683;-69
2022/06/28 06:34:14;;;;;;;10.35;4.85;;;26.40;87.30;;;;;;5015043;28;20207;-69
2022/06/28 06:36:41;;;;;;;7.13;5.03;;;26.50;87.30;;;;;;5014555;28;20515;-70
2022/06/28 06:39:08;;;;;;;9.82;4.70;;;26.60;87.00;;;;;;5014901;28;20214;-69
2022/06/28 06:41:35;;;;;;;5.63;4.82;;;26.70;86.50;;;;;;5010558;28;20215;-70
2022/06/28 06:44:02;;;;;;;9.35;4.72;;;26.70;86.10;;;;;;5010927;28;20776;-68
2022/06/28 06:46:29;;;;;;;7.20;4.63;;;26.80;85.80;;;;;;5011772;28;20235;-68
2022/06/28 06:48:58;;;;;;;7.95;4.85;;;26.90;85.60;;;;;;5010485;28;20272;-69
2022/06/28 06:51:25;;;;;;;4.72;4.30;;;26.90;85.30;;;;;;5012011;28;20211;-68
2022/06/28 06:53:52;;;;;;;5.25;4.55;;;27.00;85.10;;;;;;5011190;28;20207;-69
2022/06/28 06:56:19;;;;;;;6.32;4.72;;;27.10;85.00;;;;;;5009313;28;20609;-69
2022/06/28 06:58:46;;;;;;;9.90;4.88;;;27.20;84.70;;;;;;5011051;28;20626;-69
2022/06/28 07:01:12;;;;;;;9.38;4.72;;;27.20;84.60;;;;;;5010881;28;20211;-69
2022/06/28 07:03:44;;;;;;;10.70;4.63;;;27.30;84.30;;;;;;5019039;28;20223;-69
2022/06/28 07:06:13;;;;;;;4.57;3.90;;;27.40;84.10;;;;;;5015032;28;20207;-69
2022/06/28 07:08:40;;;;;;;7.68;3.90;;;27.40;83.50;;;;;;5012632;28;20215;-69
2022/06/28 07:11:07;;;;;;;6.22;4.20;;;27.50;83.10;;;;;;5008731;28;20215;-68
2022/06/28 07:13:34;;;;;;;7.78;4.85;;;27.60;83.20;;;;;;5009242;28;20211;-69
2022/06/28 07:16:01;;;;;;;5.10;4.40;;;27.70;83.20;;;;;;5008628;28;20215;-70
2022/06/28 07:18:29;;;;;;;8.18;4.65;;;27.80;82.50;;;;;;5016450;28;20273;-70
2022/06/28 07:20:56;;;;;;;6.68;4.75;;;28.00;82.50;;;;;;5016874;28;20207;-70
2022/06/28 07:23:24;;;;;;;5.97;4.50;;;28.10;82.30;;;;;;5010530;28;20223;-69
2022/06/28 07:25:51;;;;;;;12.38;4.75;;;28.20;81.30;;;;;;5011704;28;20206;-69
2022/06/28 07:28:18;;;;;;;7.57;4.65;;;28.30;80.70;;;;;;5009393;28;20573;-68
2022/06/28 07:30:46;;;;;;;5.47;4.22;;;28.40;80.00;;;;;;5009384;28;20238;-71
2022/06/28 07:33:14;;;;;;;9.50;4.78;;;28.50;79.20;;;;;;5011325;28;20210;-69
2022/06/28 07:35:41;;;;;;;6.10;4.35;;;28.60;78.70;;;;;;5017001;28;20211;-70
2022/06/28 07:38:08;;;;;;;7.85;4.03;;;28.60;78.30;;;;;;5021705;28;20576;-68
2022/06/28 07:40:36;;;;;;;6.90;4.38;;;28.70;78.20;;;;;;5026435;28;20203;-68
2022/06/28 07:43:03;;;;;;;5.22;4.00;;;28.80;78.00;;;;;;5018547;28;20664;-67
2022/06/28 07:54:57;;;;;;;5.28;3.90;;;29.20;76.10;;;;;;5018869;28;20906;-69
2022/06/28 07:57:25;;;;;;;8.98;3.85;;;29.40;75.70;;;;;;5016313;28;20207;-68
2022/06/28 07:59:52;;;;;;;6.53;3.85;;;29.40;74.40;;;;;;5018309;28;20218;-70
2022/06/28 08:02:19;;;;;;;5.53;3.70;;;29.50;73.80;;;;;;5019547;28;20211;-67
2022/06/28 08:04:47;;;;;;;5.32;3.92;;;29.60;73.30;;;;;;5015643;28;20199;-69
2022/06/28 08:07:14;;;;;;;4.72;3.63;;;29.70;73.20;;;;;;5017526;28;20203;-75
2022/06/28 08:13:04;;;;;;;5.15;3.70;;;29.90;71.40;;;;;;5017006;28;20209;-72
2022/06/28 08:15:31;;;;;;;7.55;3.88;;;29.90;71.30;;;;;;5024204;28;20241;-70
2022/06/28 08:17:58;;;;;;;6.40;4.15;;;30.10;71.10;;;;;;5020607;28;20261;-77
2022/06/28 08:20:25;;;;;;;5.32;3.33;;;30.20;70.60;;;;;;5017764;28;20207;-72
2022/06/28 08:22:52;;;;;;;4.28;3.40;;;30.30;69.70;;;;;;5018771;28;20278;-72
2022/06/28 08:25:20;;;;;;;3.60;3.30;;;30.30;69.20;;;;;;5021248;28;20275;-72
2022/06/28 08:27:47;;;;;;;3.67;2.88;;;30.40;69.10;;;;;;5018613;28;20246;-71
2022/06/28 08:30:16;;;;;;;3.72;3.00;;;30.50;68.10;;;;;;5015067;28;20226;-71
2022/06/28 08:32:43;;;;;;;3.72;3.15;;;30.60;67.70;;;;;;5020769;28;20207;-71
2022/06/28 08:35:10;;;;;;;5.15;3.10;;;30.60;67.70;;;;;;5019604;28;20214;-71
2022/06/28 08:37:37;;;;;;;6.78;3.35;;;30.70;67.30;;;;;;5029217;28;20211;-73
2022/06/28 08:40:04;;;;;;;3.80;3.22;;;30.80;66.90;;;;;;5017290;28;20203;-73
2022/06/28 08:42:35;;;;;;;4.07;3.53;;;30.90;66.80;;;;;;5024189;28;20570;-71
2022/06/28 08:45:03;;;;;;;7.20;3.55;;;31.00;66.10;;;;;;5017570;28;20219;-72
2022/06/28 08:47:34;;;;;;;5.20;2.85;;;31.10;65.90;;;;;;5030910;28;20218;-72
2022/06/28 08:50:05;;;;;;;4.15;2.67;;;31.30;65.50;;;;;;5017413;28;20207;-72
2022/06/28 08:52:34;;;;;;;3.33;2.92;;;31.50;64.50;;;;;;5019104;28;20215;-71
2022/06/28 08:55:01;;;;;;;3.80;2.30;;;31.60;63.30;;;;;;5019974;28;20230;-71
2022/06/28 08:57:32;;;;;;;3.70;2.83;;;31.80;62.10;;;;;;5023431;28;20575;-71
2022/06/28 09:00:00;;;;;;;3.10;2.38;;;31.80;61.60;;;;;;5017842;28;20584;-70
2022/06/28 09:02:27;;;;;;;4.15;2.83;;;31.80;61.60;;;;;;5016700;28;20219;-69
2022/06/28 09:04:57;;;;;;;6.57;2.80;;;31.90;61.60;;;;;;5015107;28;20211;-71
2022/06/28 09:07:24;;;;;;;3.90;3.05;;;32.10;61.10;;;;;;5019977;28;20207;-70
2022/06/28 09:09:52;;;;;;;3.08;2.30;;;32.10;60.60;;;;;;5015736;28;20647;-71
2022/06/28 09:12:19;;;;;;;5.45;3.10;;;32.20;60.70;;;;;;5015115;28;20204;-72
2022/06/28 09:14:47;;;;;;;3.10;2.47;;;32.20;59.70;;;;;;5014811;28;20208;-69
2022/06/28 09:17:22;;;;;;;4.75;2.83;;;32.30;59.90;;;;;;5014750;28;20250;-70
2022/06/28 09:19:52;;;;;;;3.22;2.92;;;32.50;59.90;;;;;;5015433;28;20217;-70
2022/06/28 09:22:35;;;;;;;3.25;2.72;;;32.60;59.50;;;;;;5025240;28;20265;-70
2022/06/28 09:25:07;;;;;;;3.42;3.13;;;32.60;59.20;;;;;;5013991;28;20215;-70
2022/06/28 09:27:36;;;;;;;3.67;3.00;;;32.70;59.20;;;;;;5029172;28;20222;-70
2022/06/28 09:30:06;;;;;;;4.57;3.30;;;32.70;59.20;;;;;;5023232;28;20231;-69
2022/06/28 09:32:34;;;;;;;3.47;3.17;;;32.90;59.30;;;;;;5014109;28;20208;-71
2022/06/28 09:35:03;;;;;;;7.65;3.10;;;33.00;59.00;;;;;;5015118;28;20202;-71
2022/06/28 09:37:50;;;;;;;3.60;3.17;;;33.10;58.70;;;;;;5017779;28;20229;-70
2022/06/28 09:40:19;;;;;;;7.43;3.15;;;33.30;58.60;;;;;;5014068;28;20605;-71
2022/06/28 09:42:47;;;;;;;3.55;3.25;;;33.40;58.40;;;;;;5021096;28;20218;-71
2022/06/28 09:45:17;;;;;;;3.28;2.97;;;33.50;58.10;;;;;;5028273;28;20229;-70
2022/06/28 09:47:47;;;;;;;3.67;3.15;;;33.50;58.20;;;;;;5030836;28;20214;-71
2022/06/28 09:50:19;;;;;;;3.25;2.88;;;33.50;57.90;;;;;;5031396;28;20211;-71
2022/06/28 09:52:46;;;;;;;3.35;3.05;;;33.60;57.60;;;;;;5024858;28;20210;-70
2022/06/28 09:55:17;;;;;;;3.40;3.05;;;33.60;57.50;;;;;;5027036;28;20257;-69
2022/06/28 09:57:47;;;;;;;4.15;3.17;;;33.80;57.70;;;;;;5013182;28;20211;-69
2022/06/28 10:00:16;;;;;;;5.13;3.42;;;33.90;57.30;;;;;;5011995;28;20242;-68
2022/06/28 10:02:43;;;;;;;4.80;3.60;;;34.00;57.00;;;;;;5015614;28;20581;-68
2022/06/28 10:05:11;;;;;;;6.38;3.70;;;34.10;57.10;;;;;;5029613;28;20234;-70
2022/06/28 10:07:39;;;;;;;3.30;3.00;;;34.20;56.80;;;;;;5016103;28;20281;-70
2022/06/28 10:10:07;;;;;;;6.10;3.58;;;34.40;56.90;;;;;;5023259;28;20199;-68
2022/06/28 10:15:23;;;;;;;3.28;3.08;;;34.60;56.50;;;;;;5020136;28;20218;-71
2022/06/28 10:17:59;;;;;;;5.45;3.08;;;34.80;56.10;;;;;;5011911;28;20321;-70
2022/06/28 10:20:27;;;;;;;4.13;2.70;;;34.90;55.70;;;;;;5020903;28;20210;-71
2022/06/28 10:23:21;;;;;;;2.88;2.60;;;35.00;54.90;;;;;;5012949;28;20583;-70
2022/06/28 10:26:02;;;;;;;5.35;3.00;;;35.10;54.60;;;;;;5014966;28;20736;-71
2022/06/28 10:28:37;;;;;;;6.03;3.03;;;35.40;54.30;;;;;;5017078;28;20207;-70
2022/06/28 10:31:35;;;;;;;3.58;2.90;;;35.50;53.90;;;;;;5011745;28;20214;-70
2022/06/28 10:34:03;;;;;;;3.42;3.13;;;35.60;54.40;;;;;;5012838;28;20213;-73
2022/06/28 10:36:40;;;;;;;3.03;2.80;;;35.70;54.60;;;;;;5012401;28;20358;-70
2022/06/28 10:39:18;;;;;;;4.57;3.10;;;35.70;54.00;;;;;;5014157;28;20210;-71
2022/06/28 10:41:47;;;;;;;3.58;3.08;;;35.50;53.00;;;;;;5012262;28;20203;-72
2022/06/28 10:44:17;;;;;;;5.00;3.20;;;35.20;53.30;;;;;;5011713;28;20257;-72
2022/06/28 10:46:51;;;;;;;5.60;3.60;;;35.20;54.00;;;;;;5014681;28;20266;-71
2022/06/28 10:49:18;;;;;;;4.20;3.65;;;35.50;54.10;;;;;;5011975;28;20212;-70
2022/06/28 10:52:10;;;;;;;3.38;3.10;;;35.70;53.70;;;;;;5014550;28;20217;-71
2022/06/28 10:54:38;;;;;;;3.80;2.92;;;35.90;53.30;;;;;;5017274;28;20245;-70
2022/06/28 10:57:20;;;;;;;5.05;3.45;;;35.90;53.10;;;;;;5018682;28;20210;-71
2022/06/28 10:59:50;;;;;;;5.65;2.92;;;35.80;53.30;;;;;;5012828;28;20256;-71
2022/06/28 11:02:17;;;;;;;3.70;3.40;;;35.70;53.10;;;;;;5011630;28;20215;-72
2022/06/28 11:04:46;;;;;;;4.20;3.22;;;35.50;53.00;;;;;;5011604;28;20227;-71
2022/06/28 11:07:23;;;;;;;3.95;3.00;;;35.50;53.20;;;;;;5015165;28;20211;-70
2022/06/28 11:10:12;;;;;;;3.75;2.80;;;35.50;53.10;;;;;;5013903;28;20301;-71
2022/06/28 11:12:42;;;;;;;3.30;3.00;;;35.60;53.00;;;;;;5010283;28;20684;-69
2022/06/28 11:15:12;;;;;;;5.85;3.30;;;35.60;52.90;;;;;;5011241;28;20208;-69
2022/06/28 11:17:42;;;;;;;3.85;3.22;;;35.50;52.70;;;;;;5009953;28;20239;-69
2022/06/28 11:20:11;;;;;;;4.72;2.60;;;35.50;52.70;;;;;;5012515;28;20220;-70
2022/06/28 11:22:41;;;;;;;3.90;3.00;;;35.60;52.80;;;;;;5012208;28;20215;-70
2022/06/28 11:25:09;;;;;;;3.58;2.75;;;35.60;52.70;;;;;;5011663;28;20231;-69
2022/06/28 11:27:42;;;;;;;2.42;2.22;;;35.80;53.40;;;;;;5020741;28;20207;-67
2022/06/28 11:30:11;;;;;;;6.70;3.58;;;36.10;52.50;;;;;;5014003;28;20234;-68
2022/06/28 11:32:40;;;;;;;4.22;2.97;;;36.30;52.20;;;;;;5010545;28;20707;-68
2022/06/28 11:35:10;;;;;;;7.38;3.33;;;36.40;51.60;;;;;;5011962;28;20211;-68
2022/06/28 11:37:48;;;;;;;5.57;2.92;;;36.30;51.30;;;;;;5011020;28;20211;-70
2022/06/28 11:40:16;;;;;;;6.75;3.10;;;36.20;51.50;;;;;;5010126;28;20211;-69
2022/06/28 11:42:43;;;;;;;5.45;3.38;;;36.00;51.50;;;;;;5018365;28;20211;-69
2022/06/28 11:45:13;;;;;;;3.63;2.90;;;36.00;51.60;;;;;;5028986;28;20258;-70
2022/06/28 11:47:42;;;;;;;3.42;3.00;;;36.00;51.60;;;;;;5012603;28;20211;-70
2022/06/28 11:50:14;;;;;;;5.65;3.05;;;36.00;51.50;;;;;;5019832;28;20685;-69
2022/06/28 11:52:50;;;;;;;4.03;3.00;;;36.20;51.80;;;;;;5013640;28;20352;-70
2022/06/28 11:55:18;;;;;;;6.45;3.53;;;36.30;51.60;;;;;;5010948;28;20675;-71
2022/06/28 11:57:45;;;;;;;3.75;3.10;;;36.40;51.30;;;;;;5009666;28;20306;-67
2022/06/28 12:00:15;;;;;;;3.70;3.40;;;36.60;50.90;;;;;;5009697;28;20221;-67
2022/06/28 12:02:51;;;;;;;5.50;2.80;;;36.90;50.60;;;;;;5019818;28;20317;-71
2022/06/28 12:05:29;;;;;;;3.38;3.08;;;37.10;50.20;;;;;;5017645;28;20233;-70
2022/06/28 12:07:56;;;;;;;4.40;2.88;;;37.40;49.80;;;;;;5010649;28;20810;-72
2022/06/28 12:10:26;;;;;;;3.42;3.13;;;37.40;49.20;;;;;;5010427;28;20204;-69
2022/06/28 12:12:54;;;;;;;5.63;3.55;;;37.40;49.10;;;;;;5011187;28;20211;-71
2022/06/28 12:15:31;;;;;;;3.80;3.03;;;37.60;49.00;;;;;;5010824;28;20218;-70
2022/06/28 12:18:01;;;;;;;5.03;3.40;;;37.70;49.10;;;;;;5009548;28;20235;-69
2022/06/28 12:20:29;;;;;;;2.70;2.50;;;37.90;49.00;;;;;;5010748;28;20215;-70
2022/06/28 12:23:01;;;;;;;3.13;2.88;;;38.10;48.40;;;;;;5011289;28;20215;-73
2022/06/28 12:25:28;;;;;;;3.17;2.88;;;38.00;47.90;;;;;;5016082;28;20200;-71
2022/06/28 12:27:55;;;;;;;3.42;2.78;;;37.80;48.20;;;;;;5017244;28;20574;-70
2022/06/28 12:30:22;;;;;;;3.63;2.92;;;37.70;48.00;;;;;;5018335;28;20692;-72
2022/06/28 12:32:52;;;;;;;5.35;2.70;;;37.50;47.70;;;;;;5014531;28;20222;-73
2022/06/28 12:35:20;;;;;;;5.28;3.05;;;37.30;48.30;;;;;;5016163;28;20207;-72
2022/06/28 12:37:48;;;;;;;4.38;3.20;;;37.10;48.50;;;;;;5017881;28;20208;-72
2022/06/28 12:40:15;;;;;;;3.83;3.53;;;37.00;48.40;;;;;;5018165;28;20206;-73
2022/06/28 12:42:42;;;;;;;3.28;2.72;;;37.00;48.40;;;;;;5024325;28;20211;-71
2022/06/28 12:45:10;;;;;;;3.20;2.90;;;36.80;48.30;;;;;;5025219;28;20683;-71
2022/06/28 12:47:39;;;;;;;4.25;3.03;;;36.70;48.20;;;;;;5017872;28;20550;-72
2022/06/28 12:50:12;;;;;;;4.50;3.40;;;36.60;48.10;;;;;;5016362;28;20215;-71
2022/06/28 12:52:40;;;;;;;4.97;3.15;;;36.50;49.00;;;;;;5015525;28;20213;-69
2022/06/28 12:55:08;;;;;;;5.57;3.60;;;36.60;49.00;;;;;;5025835;28;20242;-70
2022/06/28 12:57:35;;;;;;;4.25;3.47;;;36.50;49.00;;;;;;5022194;28;20210;-71
2022/06/28 13:00:02;;;;;;;3.42;3.13;;;36.60;49.40;;;;;;5021959;28;20230;-71
2022/06/28 13:02:29;;;;;;;3.08;2.83;;;36.70;48.80;;;;;;5018928;28;20203;-71
2022/06/28 13:04:56;;;;;;;3.83;3.33;;;36.80;48.30;;;;;;5016650;28;20223;-72
2022/06/28 13:07:25;;;;;;;4.10;3.10;;;36.80;48.30;;;;;;5016446;28;20218;-71
2022/06/28 13:09:53;;;;;;;5.07;3.67;;;36.80;48.20;;;;;;5017672;28;20215;-71
2022/06/28 13:12:20;;;;;;;6.32;3.50;;;36.70;48.20;;;;;;5012739;28;20208;-71
2022/06/28 13:14:47;;;;;;;5.43;3.25;;;36.70;48.30;;;;;;5013462;28;20200;-72